sensor_id;sensor_type;location;lat;lon;timestamp;pressure;altitude;pressure_sealevel;temperature;humidity
10946;BME280;5525;42.648;23.368;2023-03-18T00:01:45;95090.81;;;0.71;100.00
10946;BME280;5525;42.648;23.368;2023-03-18T00:04:12;95095.50;;;0.90;100.00
10946;BME280;5525;42.648;23.368;2023-03-18T00:06:39;95087.53;;;0.90;100.00
10946;BME280;5525;42.648;23.368;2023-03-18T00:09:06;95093.97;;;0.99;100.00
10946;BME280;5525;42.648;23.368;2023-03-18T00:11:35;95084.00;;;0.85;100.00
10946;BME280;5525;42.648;23.368;2023-03-18T00:14:01;95085.66;;;0.91;100.00
10946;BME280;5525;42.648;23.368;2023-03-18T00:16:28;95088.91;;;0.98;100.00
10946;BME280;5525;42.648;23.368;2023-03-18T00:18:55;95084.59;;;0.92;100.00
10946;BME280;5525;42.648;23.368;2023-03-18T00:21:22;95080.25;;;0.81;100.00
10946;BME280;5525;42.648;23.368;2023-03-18T00:23:49;95078.22;;;0.93;100.00
10946;BME280;5525;42.648;23.368;2023-03-18T00:26:20;95079.81;;;0.89;100.00
10946;BME280;5525;42.648;23.368;2023-03-18T00:28:48;95070.13;;;0.78;100.00
10946;BME280;5525;42.648;23.368;2023-03-18T00:31:15;95066.91;;;0.71;100.00
10946;BME280;5525;42.648;23.368;2023-03-18T00:33:42;95064.94;;;0.61;100.00
10946;BME280;5525;42.648;23.368;2023-03-18T00:36:10;95076.63;;;0.34;100.00
10946;BME280;5525;42.648;23.368;2023-03-18T00:38:38;95064.69;;;0.36;100.00
10946;BME280;5525;42.648;23.368;2023-03-18T00:41:07;95051.38;;;0.31;100.00
10946;BME280;5525;42.648;23.368;2023-03-18T00:43:39;95065.47;;;0.32;100.00
10946;BME280;5525;42.648;23.368;2023-03-18T00:46:13;95056.66;;;0.26;100.00
10946;BME280;5525;42.648;23.368;2023-03-18T00:48:42;95047.06;;;0.25;100.00
10946;BME280;5525;42.648;23.368;2023-03-18T00:51:09;95041.50;;;0.27;100.00
10946;BME280;5525;42.648;23.368;2023-03-18T00:53:39;95042.25;;;0.22;100.00
10946;BME280;5525;42.648;23.368;2023-03-18T00:56:06;95042.66;;;0.09;100.00
10946;BME280;5525;42.648;23.368;2023-03-18T00:58:32;95038.94;;;0.10;100.00
10946;BME280;5525;42.648;23.368;2023-03-18T01:01:01;95044.59;;;-0.08;100.00
10946;BME280;5525;42.648;23.368;2023-03-18T01:03:29;95036.56;;;-0.13;100.00
10946;BME280;5525;42.648;23.368;2023-03-18T01:05:56;95040.88;;;-0.07;100.00
10946;BME280;5525;42.648;23.368;2023-03-18T01:08:23;95030.03;;;-0.06;100.00
10946;BME280;5525;42.648;23.368;2023-03-18T01:10:51;95032.81;;;-0.17;100.00
10946;BME280;5525;42.648;23.368;2023-03-18T01:13:18;95033.81;;;-0.23;100.00
10946;BME280;5525;42.648;23.368;2023-03-18T01:15:44;95026.53;;;-0.33;100.00
10946;BME280;5525;42.648;23.368;2023-03-18T01:18:12;95024.38;;;-0.36;100.00
10946;BME280;5525;42.648;23.368;2023-03-18T01:20:41;95022.16;;;-0.22;100.00
10946;BME280;5525;42.648;23.368;2023-03-18T01:23:09;95025.78;;;-0.28;100.00
10946;BME280;5525;42.648;23.368;2023-03-18T01:25:36;95016.28;;;-0.24;100.00
10946;BME280;5525;42.648;23.368;2023-03-18T01:28:03;95014.19;;;-0.22;100.00
10946;BME280;5525;42.648;23.368;2023-03-18T01:30:30;95023.25;;;-0.18;100.00
10946;BME280;5525;42.648;23.368;2023-03-18T01:32:59;95019.75;;;-0.24;100.00
10946;BME280;5525;42.648;23.368;2023-03-18T01:35:26;95010.97;;;-0.24;100.00
10946;BME280;5525;42.648;23.368;2023-03-18T01:37:54;95017.59;;;-0.27;100.00
10946;BME280;5525;42.648;23.368;2023-03-18T01:40:22;95016.72;;;-0.32;100.00
10946;BME280;5525;42.648;23.368;2023-03-18T01:42:54;95017.84;;;-0.28;100.00
10946;BME280;5525;42.648;23.368;2023-03-18T01:45:23;95012.78;;;-0.30;100.00
10946;BME280;5525;42.648;23.368;2023-03-18T01:47:50;95016.03;;;-0.23;100.00
10946;BME280;5525;42.648;23.368;2023-03-18T01:50:20;95016.66;;;-0.16;100.00
10946;BME280;5525;42.648;23.368;2023-03-18T01:52:51;95010.91;;;-0.29;100.00
10946;BME280;5525;42.648;23.368;2023-03-18T01:55:24;95017.50;;;-0.32;100.00
10946;BME280;5525;42.648;23.368;2023-03-18T01:57:53;95008.63;;;-0.42;100.00
10946;BME280;5525;42.648;23.368;2023-03-18T02:00:20;95010.22;;;-0.41;100.00
10946;BME280;5525;42.648;23.368;2023-03-18T02:02:49;95005.06;;;-0.31;100.00
10946;BME280;5525;42.648;23.368;2023-03-18T02:05:19;95003.41;;;-0.37;100.00
10946;BME280;5525;42.648;23.368;2023-03-18T02:07:47;95002.09;;;-0.35;100.00
10946;BME280;5525;42.648;23.368;2023-03-18T02:10:16;95007.91;;;-0.38;100.00
10946;BME280;5525;42.648;23.368;2023-03-18T02:12:48;95004.69;;;-0.40;100.00
10946;BME280;5525;42.648;23.368;2023-03-18T02:15:18;94999.13;;;-0.60;100.00
10946;BME280;5525;42.648;23.368;2023-03-18T02:17:50;94993.53;;;-0.63;100.00
10946;BME280;5525;42.648;23.368;2023-03-18T02:20:30;95001.28;;;-0.57;100.00
10946;BME280;5525;42.648;23.368;2023-03-18T02:23:06;95001.19;;;-0.67;100.00
10946;BME280;5525;42.648;23.368;2023-03-18T02:25:40;95001.13;;;-0.50;100.00
10946;BME280;5525;42.648;23.368;2023-03-18T02:28:13;94995.44;;;-0.37;100.00
10946;BME280;5525;42.648;23.368;2023-03-18T02:30:45;95004.00;;;-0.52;100.00
10946;BME280;5525;42.648;23.368;2023-03-18T02:33:14;95008.63;;;-0.42;100.00
10946;BME280;5525;42.648;23.368;2023-03-18T02:35:43;95007.34;;;-0.40;100.00
10946;BME280;5525;42.648;23.368;2023-03-18T02:38:11;95004.41;;;-0.43;100.00
10946;BME280;5525;42.648;23.368;2023-03-18T02:40:40;94999.63;;;-0.41;100.00
10946;BME280;5525;42.648;23.368;2023-03-18T02:43:20;95002.34;;;-0.36;100.00
10946;BME280;5525;42.648;23.368;2023-03-18T02:46:00;94996.22;;;-0.37;100.00
10946;BME280;5525;42.648;23.368;2023-03-18T02:48:34;94993.41;;;-0.52;100.00
10946;BME280;5525;42.648;23.368;2023-03-18T02:51:02;94995.25;;;-0.52;100.00
10946;BME280;5525;42.648;23.368;2023-03-18T02:53:29;94993.72;;;-0.48;100.00
10946;BME280;5525;42.648;23.368;2023-03-18T02:55:55;94997.47;;;-0.44;100.00
10946;BME280;5525;42.648;23.368;2023-03-18T02:58:24;94994.56;;;-0.43;100.00
10946;BME280;5525;42.648;23.368;2023-03-18T03:00:51;94988.75;;;-0.40;100.00
10946;BME280;5525;42.648;23.368;2023-03-18T03:03:17;94996.59;;;-0.28;100.00
10946;BME280;5525;42.648;23.368;2023-03-18T03:05:44;94994.06;;;-0.18;100.00
10946;BME280;5525;42.648;23.368;2023-03-18T03:08:11;94989.31;;;-0.16;100.00
10946;BME280;5525;42.648;23.368;2023-03-18T03:10:37;94999.09;;;-0.17;100.00
10946;BME280;5525;42.648;23.368;2023-03-18T03:13:05;95003.00;;;-0.24;100.00
10946;BME280;5525;42.648;23.368;2023-03-18T03:15:33;94999.25;;;-0.28;100.00
10946;BME280;5525;42.648;23.368;2023-03-18T03:18:00;95002.50;;;-0.21;100.00
10946;BME280;5525;42.648;23.368;2023-03-18T03:20:26;94992.97;;;-0.22;100.00
10946;BME280;5525;42.648;23.368;2023-03-18T03:22:53;95005.59;;;-0.29;100.00
10946;BME280;5525;42.648;23.368;2023-03-18T03:25:20;94999.00;;;-0.27;100.00
10946;BME280;5525;42.648;23.368;2023-03-18T03:27:47;95011.16;;;-0.31;100.00
10946;BME280;5525;42.648;23.368;2023-03-18T03:30:14;95005.75;;;-0.41;100.00
10946;BME280;5525;42.648;23.368;2023-03-18T03:32:44;95016.28;;;-0.67;100.00
10946;BME280;5525;42.648;23.368;2023-03-18T03:35:12;95003.44;;;-0.54;100.00
10946;BME280;5525;42.648;23.368;2023-03-18T03:37:40;95010.41;;;-0.91;100.00
10946;BME280;5525;42.648;23.368;2023-03-18T03:40:09;95010.66;;;-0.71;100.00
10946;BME280;5525;42.648;23.368;2023-03-18T03:42:36;95016.66;;;-0.59;100.00
10946;BME280;5525;42.648;23.368;2023-03-18T03:45:03;95017.53;;;-0.53;100.00
10946;BME280;5525;42.648;23.368;2023-03-18T03:47:30;95025.06;;;-0.45;100.00
10946;BME280;5525;42.648;23.368;2023-03-18T03:49:59;95003.09;;;-0.41;100.00
10946;BME280;5525;42.648;23.368;2023-03-18T03:52:25;95010.47;;;-0.43;100.00
10946;BME280;5525;42.648;23.368;2023-03-18T03:54:53;95013.28;;;-0.54;100.00
10946;BME280;5525;42.648;23.368;2023-03-18T03:57:20;95017.41;;;-0.63;100.00
10946;BME280;5525;42.648;23.368;2023-03-18T03:59:48;95023.94;;;-0.87;100.00
10946;BME280;5525;42.648;23.368;2023-03-18T04:02:15;95019.19;;;-1.07;100.00
10946;BME280;5525;42.648;23.368;2023-03-18T04:04:42;95027.41;;;-1.25;100.00
10946;BME280;5525;42.648;23.368;2023-03-18T04:07:11;95024.50;;;-1.23;100.00
10946;BME280;5525;42.648;23.368;2023-03-18T04:09:38;95030.78;;;-1.29;100.00
10946;BME280;5525;42.648;23.368;2023-03-18T04:12:06;95028.59;;;-1.16;100.00
10946;BME280;5525;42.648;23.368;2023-03-18T04:14:34;95034.22;;;-1.12;100.00
10946;BME280;5525;42.648;23.368;2023-03-18T04:17:01;95035.94;;;-1.01;100.00
10946;BME280;5525;42.648;23.368;2023-03-18T04:19:27;95040.03;;;-0.94;100.00
10946;BME280;5525;42.648;23.368;2023-03-18T04:21:55;95049.72;;;-0.83;100.00
10946;BME280;5525;42.648;23.368;2023-03-18T04:24:25;95052.53;;;-0.73;100.00
10946;BME280;5525;42.648;23.368;2023-03-18T04:26:52;95050.38;;;-0.76;100.00
10946;BME280;5525;42.648;23.368;2023-03-18T04:29:19;95055.69;;;-0.54;100.00
10946;BME280;5525;42.648;23.368;2023-03-18T04:31:47;95056.56;;;-0.49;100.00
10946;BME280;5525;42.648;23.368;2023-03-18T04:34:13;95061.88;;;-0.49;100.00
10946;BME280;5525;42.648;23.368;2023-03-18T04:36:40;95065.75;;;-0.56;100.00
10946;BME280;5525;42.648;23.368;2023-03-18T04:39:07;95066.06;;;-0.53;100.00
10946;BME280;5525;42.648;23.368;2023-03-18T04:41:35;95065.00;;;-0.52;100.00
10946;BME280;5525;42.648;23.368;2023-03-18T04:44:03;95067.09;;;-0.54;100.00
10946;BME280;5525;42.648;23.368;2023-03-18T04:46:29;95074.50;;;-0.56;100.00
10946;BME280;5525;42.648;23.368;2023-03-18T04:48:56;95070.81;;;-0.55;100.00
10946;BME280;5525;42.648;23.368;2023-03-18T04:51:24;95079.25;;;-0.58;100.00
10946;BME280;5525;42.648;23.368;2023-03-18T04:53:52;95079.69;;;-0.44;100.00
10946;BME280;5525;42.648;23.368;2023-03-18T04:56:19;95084.16;;;-0.28;100.00
10946;BME280;5525;42.648;23.368;2023-03-18T04:58:47;95080.19;;;-0.26;100.00
10946;BME280;5525;42.648;23.368;2023-03-18T05:01:14;95075.06;;;-0.32;100.00
10946;BME280;5525;42.648;23.368;2023-03-18T05:03:41;95067.75;;;-0.25;100.00
10946;BME280;5525;42.648;23.368;2023-03-18T05:06:08;95064.16;;;-0.14;100.00
10946;BME280;5525;42.648;23.368;2023-03-18T05:08:42;95064.03;;;-0.03;100.00
10946;BME280;5525;42.648;23.368;2023-03-18T05:11:09;95063.84;;;0.04;100.00
10946;BME280;5525;42.648;23.368;2023-03-18T05:13:35;95068.16;;;0.10;100.00
10946;BME280;5525;42.648;23.368;2023-03-18T05:16:04;95067.09;;;0.11;100.00
10946;BME280;5525;42.648;23.368;2023-03-18T05:18:31;95068.22;;;-0.07;100.00
10946;BME280;5525;42.648;23.368;2023-03-18T05:20:58;95054.81;;;0.05;100.00
10946;BME280;5525;42.648;23.368;2023-03-18T05:23:25;95049.88;;;0.14;100.00
10946;BME280;5525;42.648;23.368;2023-03-18T05:25:51;95053.34;;;-0.08;100.00
10946;BME280;5525;42.648;23.368;2023-03-18T05:28:18;95062.03;;;0.10;100.00
10946;BME280;5525;42.648;23.368;2023-03-18T05:30:45;95058.38;;;0.16;100.00
10946;BME280;5525;42.648;23.368;2023-03-18T05:33:14;95056.34;;;0.23;100.00
10946;BME280;5525;42.648;23.368;2023-03-18T05:35:40;95046.63;;;0.33;100.00
10946;BME280;5525;42.648;23.368;2023-03-18T05:38:07;95049.59;;;0.42;100.00
10946;BME280;5525;42.648;23.368;2023-03-18T05:40:34;95044.78;;;0.34;100.00
10946;BME280;5525;42.648;23.368;2023-03-18T05:43:02;95053.72;;;0.54;100.00
10946;BME280;5525;42.648;23.368;2023-03-18T05:45:28;95045.59;;;0.66;100.00
10946;BME280;5525;42.648;23.368;2023-03-18T05:47:56;95050.03;;;0.55;100.00
10946;BME280;5525;42.648;23.368;2023-03-18T05:50:32;95061.91;;;0.79;100.00
10946;BME280;5525;42.648;23.368;2023-03-18T05:53:00;95061.25;;;0.94;100.00
10946;BME280;5525;42.648;23.368;2023-03-18T05:55:28;95063.19;;;1.08;100.00
10946;BME280;5525;42.648;23.368;2023-03-18T05:57:55;95063.84;;;1.25;100.00
10946;BME280;5525;42.648;23.368;2023-03-18T06:00:22;95074.78;;;1.29;100.00
10946;BME280;5525;42.648;23.368;2023-03-18T06:02:49;95074.00;;;1.33;100.00
10946;BME280;5525;42.648;23.368;2023-03-18T06:05:17;95075.16;;;1.47;100.00
10946;BME280;5525;42.648;23.368;2023-03-18T06:07:47;95077.13;;;1.67;100.00
10946;BME280;5525;42.648;23.368;2023-03-18T06:10:14;95080.34;;;1.74;100.00
10946;BME280;5525;42.648;23.368;2023-03-18T06:12:41;95071.38;;;1.90;100.00
10946;BME280;5525;42.648;23.368;2023-03-18T06:15:10;95074.91;;;2.06;100.00
10946;BME280;5525;42.648;23.368;2023-03-18T06:17:38;95083.78;;;2.21;100.00
10946;BME280;5525;42.648;23.368;2023-03-18T06:20:07;95073.69;;;2.43;100.00
10946;BME280;5525;42.648;23.368;2023-03-18T06:22:35;95076.13;;;2.60;100.00
10946;BME280;5525;42.648;23.368;2023-03-18T06:25:04;95082.53;;;2.74;100.00
10946;BME280;5525;42.648;23.368;2023-03-18T06:27:32;95071.09;;;2.73;100.00
10946;BME280;5525;42.648;23.368;2023-03-18T06:29:59;95080.91;;;2.53;100.00
10946;BME280;5525;42.648;23.368;2023-03-18T06:32:28;95067.56;;;2.43;100.00
10946;BME280;5525;42.648;23.368;2023-03-18T06:34:55;95071.09;;;1.87;100.00
10946;BME280;5525;42.648;23.368;2023-03-18T06:37:22;95068.13;;;1.73;100.00
10946;BME280;5525;42.648;23.368;2023-03-18T06:39:49;95062.97;;;1.61;100.00
10946;BME280;5525;42.648;23.368;2023-03-18T06:42:17;95056.09;;;1.65;100.00
10946;BME280;5525;42.648;23.368;2023-03-18T06:44:43;95049.84;;;2.02;100.00
10946;BME280;5525;42.648;23.368;2023-03-18T06:47:15;95055.69;;;1.99;100.00
10946;BME280;5525;42.648;23.368;2023-03-18T06:49:42;95052.31;;;2.23;100.00
10946;BME280;5525;42.648;23.368;2023-03-18T06:52:09;95057.97;;;2.37;100.00
10946;BME280;5525;42.648;23.368;2023-03-18T06:54:36;95050.53;;;2.49;100.00
10946;BME280;5525;42.648;23.368;2023-03-18T06:57:02;95060.41;;;2.58;100.00
10946;BME280;5525;42.648;23.368;2023-03-18T06:59:32;95050.28;;;2.95;100.00
10946;BME280;5525;42.648;23.368;2023-03-18T07:01:58;95053.75;;;2.96;100.00
10946;BME280;5525;42.648;23.368;2023-03-18T07:04:25;95053.50;;;3.02;100.00
10946;BME280;5525;42.648;23.368;2023-03-18T07:06:52;95051.09;;;3.11;100.00
10946;BME280;5525;42.648;23.368;2023-03-18T07:09:20;95049.13;;;3.62;100.00
10946;BME280;5525;42.648;23.368;2023-03-18T07:11:47;95038.56;;;4.05;100.00
10946;BME280;5525;42.648;23.368;2023-03-18T07:14:14;95045.09;;;4.38;100.00
10946;BME280;5525;42.648;23.368;2023-03-18T07:16:42;95036.59;;;4.69;100.00
10946;BME280;5525;42.648;23.368;2023-03-18T07:19:10;95032.81;;;6.93;100.00
10946;BME280;5525;42.648;23.368;2023-03-18T07:21:37;95023.25;;;11.72;92.11
10946;BME280;5525;42.648;23.368;2023-03-18T07:24:05;95017.59;;;16.39;54.16
10946;BME280;5525;42.648;23.368;2023-03-18T07:26:32;95021.53;;;19.31;40.44
10946;BME280;5525;42.648;23.368;2023-03-18T07:28:58;95022.84;;;20.03;37.55
10946;BME280;5525;42.648;23.368;2023-03-18T07:31:26;95034.84;;;19.91;36.32
10946;BME280;5525;42.648;23.368;2023-03-18T07:33:55;95037.44;;;20.91;33.79
10946;BME280;5525;42.648;23.368;2023-03-18T07:36:22;95045.22;;;20.82;32.89
10946;BME280;5525;42.648;23.368;2023-03-18T07:38:49;95043.19;;;21.77;32.00
10946;BME280;5525;42.648;23.368;2023-03-18T07:41:16;95045.47;;;21.06;32.07
10946;BME280;5525;42.648;23.368;2023-03-18T07:43:43;95043.50;;;22.82;30.22
10946;BME280;5525;42.648;23.368;2023-03-18T07:46:10;95047.72;;;19.58;33.77
10946;BME280;5525;42.648;23.368;2023-03-18T07:48:36;95052.09;;;20.65;32.73
10946;BME280;5525;42.648;23.368;2023-03-18T07:51:05;95050.63;;;23.43;29.52
10946;BME280;5525;42.648;23.368;2023-03-18T07:53:32;95049.03;;;24.56;27.48
10946;BME280;5525;42.648;23.368;2023-03-18T07:56:00;95047.06;;;26.36;25.49
10946;BME280;5525;42.648;23.368;2023-03-18T07:58:27;95050.47;;;27.31;24.05
10946;BME280;5525;42.648;23.368;2023-03-18T08:00:54;95056.69;;;27.38;23.69
10946;BME280;5525;42.648;23.368;2023-03-18T08:03:21;95046.13;;;28.38;22.50
10946;BME280;5525;42.648;23.368;2023-03-18T08:05:48;95063.50;;;28.97;21.90
10946;BME280;5525;42.648;23.368;2023-03-18T08:08:16;95058.84;;;25.29;23.74
10946;BME280;5525;42.648;23.368;2023-03-18T08:10:43;95048.97;;;29.41;21.31
10946;BME280;5525;42.648;23.368;2023-03-18T08:13:10;95055.38;;;29.87;20.48
10946;BME280;5525;42.648;23.368;2023-03-18T08:15:37;95049.75;;;31.01;19.33
10946;BME280;5525;42.648;23.368;2023-03-18T08:18:04;95058.47;;;31.53;18.89
10946;BME280;5525;42.648;23.368;2023-03-18T08:20:32;95055.88;;;29.98;19.55
10946;BME280;5525;42.648;23.368;2023-03-18T08:22:59;95062.53;;;29.23;20.03
10946;BME280;5525;42.648;23.368;2023-03-18T08:25:29;95060.13;;;28.31;20.78
10946;BME280;5525;42.648;23.368;2023-03-18T08:27:56;95059.22;;;29.60;20.14
10946;BME280;5525;42.648;23.368;2023-03-18T08:30:23;95069.75;;;29.37;19.95
10946;BME280;5525;42.648;23.368;2023-03-18T08:32:53;95072.00;;;30.19;19.49
10946;BME280;5525;42.648;23.368;2023-03-18T08:35:20;95047.41;;;31.37;18.92
10946;BME280;5525;42.648;23.368;2023-03-18T08:37:47;95058.94;;;32.54;17.70
10946;BME280;5525;42.648;23.368;2023-03-18T08:40:15;95052.84;;;31.78;18.01
10946;BME280;5525;42.648;23.368;2023-03-18T08:42:43;95050.97;;;31.50;17.90
10946;BME280;5525;42.648;23.368;2023-03-18T08:45:11;95058.56;;;33.17;17.17
10946;BME280;5525;42.648;23.368;2023-03-18T08:47:38;95057.44;;;31.60;17.33
10946;BME280;5525;42.648;23.368;2023-03-18T08:50:06;95039.38;;;30.48;19.06
10946;BME280;5525;42.648;23.368;2023-03-18T08:52:33;95049.38;;;32.86;17.55
10946;BME280;5525;42.648;23.368;2023-03-18T08:55:02;95059.44;;;32.83;16.81
10946;BME280;5525;42.648;23.368;2023-03-18T08:57:29;95052.50;;;32.88;16.89
10946;BME280;5525;42.648;23.368;2023-03-18T08:59:57;95057.97;;;32.91;16.54
10946;BME280;5525;42.648;23.368;2023-03-18T09:02:25;95060.88;;;32.66;16.71
10946;BME280;5525;42.648;23.368;2023-03-18T09:04:52;95061.16;;;32.59;16.53
10946;BME280;5525;42.648;23.368;2023-03-18T09:07:19;95061.28;;;32.21;16.66
10946;BME280;5525;42.648;23.368;2023-03-18T09:09:46;95063.06;;;34.02;16.01
10946;BME280;5525;42.648;23.368;2023-03-18T09:12:13;95064.13;;;32.64;16.28
10946;BME280;5525;42.648;23.368;2023-03-18T09:14:40;95057.66;;;32.12;16.56
10946;BME280;5525;42.648;23.368;2023-03-18T09:17:09;95063.72;;;30.60;16.88
10946;BME280;5525;42.648;23.368;2023-03-18T09:19:36;95060.06;;;32.56;16.17
10946;BME280;5525;42.648;23.368;2023-03-18T09:22:03;95060.69;;;33.04;15.46
10946;BME280;5525;42.648;23.368;2023-03-18T09:24:30;95068.16;;;32.85;14.99
10946;BME280;5525;42.648;23.368;2023-03-18T09:26:57;95069.13;;;29.29;17.49
10946;BME280;5525;42.648;23.368;2023-03-18T09:29:24;95059.47;;;30.96;16.67
10946;BME280;5525;42.648;23.368;2023-03-18T09:31:51;95065.22;;;33.10;14.95
10946;BME280;5525;42.648;23.368;2023-03-18T09:34:20;95059.19;;;32.25;15.82
10946;BME280;5525;42.648;23.368;2023-03-18T09:36:47;95063.16;;;32.58;15.30
10946;BME280;5525;42.648;23.368;2023-03-18T09:39:15;95051.94;;;31.81;16.13
10946;BME280;5525;42.648;23.368;2023-03-18T09:41:51;95056.63;;;29.86;17.04
10946;BME280;5525;42.648;23.368;2023-03-18T09:44:22;95053.88;;;30.96;16.90
10946;BME280;5525;42.648;23.368;2023-03-18T09:49:56;95045.53;;;27.88;17.96
10946;BME280;5525;42.648;23.368;2023-03-18T09:52:28;95047.47;;;28.11;17.46
10946;BME280;5525;42.648;23.368;2023-03-18T09:55:01;95044.25;;;27.46;18.04
10946;BME280;5525;42.648;23.368;2023-03-18T09:57:31;95046.75;;;27.87;17.79
10946;BME280;5525;42.648;23.368;2023-03-18T10:00:03;95043.09;;;27.21;18.15
10946;BME280;5525;42.648;23.368;2023-03-18T10:02:36;95045.63;;;28.24;17.64
10946;BME280;5525;42.648;23.368;2023-03-18T10:05:11;95041.13;;;27.67;17.59
10946;BME280;5525;42.648;23.368;2023-03-18T10:07:41;95049.03;;;26.96;18.66
10946;BME280;5525;42.648;23.368;2023-03-18T10:10:15;95043.31;;;24.95;19.58
10946;BME280;5525;42.648;23.368;2023-03-18T10:12:49;95050.00;;;20.92;22.32
10946;BME280;5525;42.648;23.368;2023-03-18T10:15:20;95041.19;;;19.14;24.31
10946;BME280;5525;42.648;23.368;2023-03-18T10:17:53;95042.56;;;17.03;26.95
10946;BME280;5525;42.648;23.368;2023-03-18T10:20:28;95037.34;;;17.48;26.91
10946;BME280;5525;42.648;23.368;2023-03-18T10:23:04;95040.69;;;21.54;22.05
10946;BME280;5525;42.648;23.368;2023-03-18T10:25:35;95037.50;;;24.03;20.02
10946;BME280;5525;42.648;23.368;2023-03-18T10:28:45;95032.94;;;26.27;18.21
10946;BME280;5525;42.648;23.368;2023-03-18T10:31:25;95039.81;;;26.46;17.47
10946;BME280;5525;42.648;23.368;2023-03-18T10:33:58;95037.78;;;24.22;19.23
10946;BME280;5525;42.648;23.368;2023-03-18T10:36:31;95027.09;;;24.31;19.15
10946;BME280;5525;42.648;23.368;2023-03-18T10:39:01;95028.78;;;26.42;17.35
10946;BME280;5525;42.648;23.368;2023-03-18T10:41:30;95028.94;;;26.89;17.33
10946;BME280;5525;42.648;23.368;2023-03-18T10:44:02;95034.19;;;27.56;17.13
10946;BME280;5525;42.648;23.368;2023-03-18T10:46:30;95029.25;;;27.44;16.65
10946;BME280;5525;42.648;23.368;2023-03-18T10:49:01;95026.69;;;27.07;16.89
10946;BME280;5525;42.648;23.368;2023-03-18T10:51:38;95032.97;;;27.11;16.82
10946;BME280;5525;42.648;23.368;2023-03-18T10:54:11;95017.47;;;26.87;16.40
10946;BME280;5525;42.648;23.368;2023-03-18T10:56:41;95022.81;;;27.27;16.77
10946;BME280;5525;42.648;23.368;2023-03-18T10:59:11;95024.25;;;26.86;17.12
10946;BME280;5525;42.648;23.368;2023-03-18T11:01:40;95021.41;;;29.15;15.58
10946;BME280;5525;42.648;23.368;2023-03-18T11:04:11;95017.81;;;29.79;14.88
10946;BME280;5525;42.648;23.368;2023-03-18T11:06:44;95019.28;;;24.16;17.79
10946;BME280;5525;42.648;23.368;2023-03-18T11:09:15;95020.78;;;20.26;20.61
10946;BME280;5525;42.648;23.368;2023-03-18T11:11:43;95019.38;;;17.85;23.17
10946;BME280;5525;42.648;23.368;2023-03-18T11:14:13;95020.44;;;15.99;25.21
10946;BME280;5525;42.648;23.368;2023-03-18T11:16:46;95017.75;;;14.44;27.65
10946;BME280;5525;42.648;23.368;2023-03-18T11:19:27;95018.03;;;13.41;28.77
10946;BME280;5525;42.648;23.368;2023-03-18T11:22:09;95019.97;;;12.71;29.87
10946;BME280;5525;42.648;23.368;2023-03-18T11:24:38;95023.66;;;12.00;30.81
10946;BME280;5525;42.648;23.368;2023-03-18T11:27:25;95028.63;;;12.64;31.09
10946;BME280;5525;42.648;23.368;2023-03-18T11:29:56;95019.53;;;16.38;27.15
10946;BME280;5525;42.648;23.368;2023-03-18T11:32:25;95010.75;;;20.91;22.26
10946;BME280;5525;42.648;23.368;2023-03-18T11:34:54;94998.03;;;17.91;24.24
10946;BME280;5525;42.648;23.368;2023-03-18T11:37:26;95003.09;;;19.28;23.50
10946;BME280;5525;42.648;23.368;2023-03-18T11:40:05;94992.53;;;19.30;22.66
10946;BME280;5525;42.648;23.368;2023-03-18T11:42:33;95002.31;;;16.65;26.01
10946;BME280;5525;42.648;23.368;2023-03-18T11:45:00;95005.06;;;14.72;28.94
10946;BME280;5525;42.648;23.368;2023-03-18T11:47:29;95007.94;;;12.60;32.21
10946;BME280;5525;42.648;23.368;2023-03-18T11:50:01;95004.75;;;11.91;34.30
10946;BME280;5525;42.648;23.368;2023-03-18T11:52:38;95007.91;;;12.89;32.76
10946;BME280;5525;42.648;23.368;2023-03-18T11:55:21;94998.00;;;17.34;27.21
10946;BME280;5525;42.648;23.368;2023-03-18T11:58:05;95001.41;;;17.12;26.51
10946;BME280;5525;42.648;23.368;2023-03-18T12:00:41;95010.44;;;15.20;28.66
10946;BME280;5525;42.648;23.368;2023-03-18T12:06:21;94999.94;;;15.35;29.93
10946;BME280;5525;42.648;23.368;2023-03-18T12:08:58;94995.03;;;17.04;27.59
10946;BME280;5525;42.648;23.368;2023-03-18T12:11:39;94998.19;;;17.79;26.72
10946;BME280;5525;42.648;23.368;2023-03-18T12:14:14;94997.69;;;15.92;29.11
10946;BME280;5525;42.648;23.368;2023-03-18T12:16:53;94993.63;;;16.60;28.34
10946;BME280;5525;42.648;23.368;2023-03-18T12:19:44;94993.31;;;16.80;27.84
10946;BME280;5525;42.648;23.368;2023-03-18T12:22:26;95002.03;;;16.24;29.45
10946;BME280;5525;42.648;23.368;2023-03-18T12:28:02;94994.88;;;13.11;32.64
10946;BME280;5525;42.648;23.368;2023-03-18T12:30:40;94998.09;;;13.05;32.59
10946;BME280;5525;42.648;23.368;2023-03-18T12:33:23;94999.97;;;12.55;33.45
10946;BME280;5525;42.648;23.368;2023-03-18T12:35:56;94998.16;;;12.38;34.02
10946;BME280;5525;42.648;23.368;2023-03-18T12:38:51;94996.09;;;13.14;32.95
10946;BME280;5525;42.648;23.368;2023-03-18T12:41:27;94985.28;;;15.11;29.96
10946;BME280;5525;42.648;23.368;2023-03-18T12:44:09;94981.72;;;16.37;28.91
10946;BME280;5525;42.648;23.368;2023-03-18T12:46:44;94980.16;;;15.62;28.93
10946;BME280;5525;42.648;23.368;2023-03-18T12:49:16;94987.38;;;13.62;31.20
10946;BME280;5525;42.648;23.368;2023-03-18T12:51:49;94998.03;;;12.64;32.93
10946;BME280;5525;42.648;23.368;2023-03-18T12:54:20;94994.63;;;12.46;33.02
10946;BME280;5525;42.648;23.368;2023-03-18T12:56:52;94996.84;;;12.15;34.44
10946;BME280;5525;42.648;23.368;2023-03-18T12:59:26;94997.97;;;11.51;35.11
10946;BME280;5525;42.648;23.368;2023-03-18T13:02:04;95001.66;;;11.46;36.15
10946;BME280;5525;42.648;23.368;2023-03-18T13:04:38;94986.84;;;11.69;35.50
10946;BME280;5525;42.648;23.368;2023-03-18T13:07:13;94978.09;;;11.38;36.38
10946;BME280;5525;42.648;23.368;2023-03-18T13:09:44;94984.91;;;11.61;35.61
10946;BME280;5525;42.648;23.368;2023-03-18T13:12:13;94988.56;;;11.57;35.41
10946;BME280;5525;42.648;23.368;2023-03-18T13:14:49;94987.38;;;11.92;35.81
10946;BME280;5525;42.648;23.368;2023-03-18T13:17:22;94980.94;;;11.67;32.96
10946;BME280;5525;42.648;23.368;2023-03-18T13:19:50;94993.41;;;11.34;34.27